createdAt,value
2019-02-02T00:00:23.109Z,-0.40
2019-02-02T00:02:51.679Z,-0.40
2019-02-02T00:05:20.371Z,-0.40
2019-02-02T00:07:48.936Z,-0.40
2019-02-02T00:10:17.508Z,-0.40
2019-02-02T00:12:46.144Z,-0.40
2019-02-02T00:15:14.690Z,-0.40
2019-02-02T00:17:43.262Z,-0.40
2019-02-02T00:20:12.207Z,-0.40
2019-02-02T00:22:40.849Z,-0.40
2019-02-02T00:25:09.585Z,-0.40
2019-02-02T00:27:41.552Z,-0.40
2019-02-02T00:30:13.744Z,-0.40
2019-02-02T00:32:42.339Z,-0.40
2019-02-02T00:35:11.668Z,-0.40
2019-02-02T00:37:40.275Z,-0.40
2019-02-02T00:40:21.269Z,-0.40
2019-02-02T00:42:49.845Z,-0.40
2019-02-02T00:45:20.186Z,-0.40
2019-02-02T00:47:49.100Z,-0.40
2019-02-02T00:50:17.938Z,-0.40
2019-02-02T00:52:46.513Z,-0.40
2019-02-02T00:55:16.756Z,-0.40
2019-02-02T00:57:52.918Z,-0.40
2019-02-02T01:00:20.271Z,-0.40
2019-02-02T01:02:48.940Z,-0.40
2019-02-02T01:05:21.684Z,-0.50
2019-02-02T01:07:51.082Z,-0.50
2019-02-02T01:10:23.192Z,-0.50
2019-02-02T01:12:51.927Z,-0.50
2019-02-02T01:15:20.666Z,-0.50
2019-02-02T01:17:49.281Z,-0.40
2019-02-02T01:20:18.280Z,-0.40
2019-02-02T01:22:46.958Z,-0.40
2019-02-02T01:25:16.288Z,-0.40
2019-02-02T01:27:44.995Z,-0.40
2019-02-02T01:30:18.990Z,-0.40
2019-02-02T01:32:47.565Z,-0.50
2019-02-02T01:35:17.869Z,-0.50
2019-02-02T01:37:46.742Z,-0.50
2019-02-02T01:40:18.305Z,-0.50
2019-02-02T01:42:46.892Z,-0.50
2019-02-02T01:45:21.356Z,-0.50
2019-02-02T01:47:49.924Z,-0.50
2019-02-02T01:50:21.632Z,-0.40
2019-02-02T01:52:50.342Z,-0.50
2019-02-02T01:55:19.200Z,-0.40
2019-02-02T01:57:47.852Z,-0.40
2019-02-02T02:00:19.368Z,-0.40
2019-02-02T02:02:48.226Z,-0.40
2019-02-02T02:05:17.137Z,-0.40
2019-02-02T02:07:45.800Z,-0.40
2019-02-02T02:10:16.965Z,-0.40
2019-02-02T02:12:45.607Z,-0.40
2019-02-02T02:15:18.982Z,-0.50
2019-02-02T02:17:47.656Z,-0.50
2019-02-02T02:20:18.088Z,-0.50
2019-02-02T02:22:47.402Z,-0.50
2019-02-02T02:25:17.664Z,-0.50
2019-02-02T02:27:46.594Z,-0.50
2019-02-02T02:30:22.649Z,-0.50
2019-02-02T02:32:52.196Z,-0.50
2019-02-02T02:35:21.018Z,-0.50
2019-02-02T02:37:49.932Z,-0.50
2019-02-02T02:40:24.976Z,-0.60
2019-02-02T02:42:53.951Z,-0.60
2019-02-02T02:45:22.762Z,-0.60
2019-02-02T02:47:51.452Z,-0.60
2019-02-02T02:50:22.478Z,-0.70
2019-02-02T02:52:51.140Z,-0.70
2019-02-02T02:55:19.933Z,-0.70
2019-02-02T02:57:48.656Z,-0.70
2019-02-02T03:00:19.829Z,-0.70
2019-02-02T03:02:48.512Z,-0.70
2019-02-02T03:05:18.319Z,-0.80
2019-02-02T03:07:47.620Z,-0.80
2019-02-02T03:10:18.733Z,-0.80
2019-02-02T03:12:47.517Z,-0.90
2019-02-02T03:15:18.531Z,-0.80
2019-02-02T03:17:47.878Z,-0.70
2019-02-02T03:20:16.788Z,-0.90
2019-02-02T03:22:45.646Z,-0.90
2019-02-02T03:25:19.553Z,-0.90
2019-02-02T03:27:48.194Z,-0.90
2019-02-02T03:30:18.839Z,-0.90
2019-02-02T03:32:47.554Z,-0.90
2019-02-02T03:35:19.111Z,-0.90
2019-02-02T03:37:47.749Z,-1.00
2019-02-02T03:40:18.291Z,-1.00
2019-02-02T03:42:46.962Z,-1.00
2019-02-02T03:45:18.192Z,-1.00
2019-02-02T03:47:46.824Z,-1.00
2019-02-02T03:50:15.549Z,-1.00
2019-02-02T03:52:44.331Z,-0.90
2019-02-02T03:55:14.745Z,-0.90
2019-02-02T03:57:43.399Z,-0.90
2019-02-02T04:00:17.623Z,-0.80
2019-02-02T04:02:46.475Z,-0.80
2019-02-02T04:05:19.909Z,-0.70
2019-02-02T04:07:48.554Z,-0.70
2019-02-02T04:10:17.288Z,-0.80
2019-02-02T04:12:45.995Z,-0.80
2019-02-02T04:15:18.412Z,-0.80
2019-02-02T04:17:47.120Z,-0.80
2019-02-02T04:20:17.935Z,-0.70
2019-02-02T04:22:47.042Z,-0.70
2019-02-02T04:25:16.268Z,-0.70
2019-02-02T04:27:44.900Z,-0.70
2019-02-02T04:30:22.148Z,-0.60
2019-02-02T04:32:50.944Z,-0.60
2019-02-02T04:35:19.926Z,-0.60
2019-02-02T04:37:48.517Z,-0.60
2019-02-02T04:40:17.728Z,-0.60
2019-02-02T04:42:46.401Z,-0.60
2019-02-02T04:45:16.617Z,-0.60
2019-02-02T04:47:45.451Z,-0.60
2019-02-02T04:50:16.174Z,-0.60
2019-02-02T04:52:44.861Z,-0.70
2019-02-02T04:55:14.989Z,-0.70
2019-02-02T04:57:45.238Z,-0.70
2019-02-02T05:00:20.041Z,-0.70
2019-02-02T05:02:48.593Z,-0.70
2019-02-02T05:05:18.141Z,-0.70
2019-02-02T05:07:46.877Z,-0.70
2019-02-02T05:10:21.016Z,-0.70
2019-02-02T05:12:49.668Z,-0.70
2019-02-02T05:15:18.332Z,-0.60
2019-02-02T05:17:46.976Z,-0.60
2019-02-02T05:20:17.518Z,-0.60
2019-02-02T05:22:46.252Z,-0.70
2019-02-02T05:25:15.106Z,-0.60
2019-02-02T05:27:43.772Z,-0.60
2019-02-02T05:30:24.116Z,-0.60
2019-02-02T05:32:52.794Z,-0.60
2019-02-02T05:35:21.484Z,-0.60
2019-02-02T05:37:50.182Z,-0.60
2019-02-02T05:40:23.132Z,-0.60
2019-02-02T05:42:51.801Z,-0.70
2019-02-02T05:45:22.485Z,-0.70
2019-02-02T05:47:51.271Z,-0.70
2019-02-02T05:50:22.036Z,-0.60
2019-02-02T05:52:51.000Z,-0.60
2019-02-02T05:55:21.348Z,-0.60
2019-02-02T05:57:50.417Z,-0.50
2019-02-02T06:00:23.300Z,-0.50
2019-02-02T06:02:51.882Z,-0.40
2019-02-02T06:05:20.497Z,-0.40
2019-02-02T06:07:49.084Z,-0.40
2019-02-02T06:10:19.159Z,-0.40
2019-02-02T06:12:47.725Z,-0.40
2019-02-02T06:15:16.646Z,-0.40
2019-02-02T06:17:45.426Z,-0.30
2019-02-02T06:20:16.594Z,-0.30
2019-02-02T06:22:45.372Z,-0.20
2019-02-02T06:25:16.990Z,-0.20
2019-02-02T06:27:45.679Z,-0.10
2019-02-02T06:30:25.106Z,-0.10
2019-02-02T06:32:53.749Z,0.00
2019-02-02T06:35:22.490Z,0.00
2019-02-02T06:37:51.056Z,0.00
2019-02-02T06:40:19.671Z,-0.10
2019-02-02T06:42:48.302Z,-0.10
2019-02-02T06:45:28.268Z,-0.10
2019-02-02T06:47:56.964Z,0.00
2019-02-02T06:50:25.699Z,0.00
2019-02-02T06:52:54.563Z,0.00
2019-02-02T06:55:23.198Z,0.00
2019-02-02T06:57:51.799Z,0.00
2019-02-02T07:00:22.501Z,0.00
2019-02-02T07:02:53.165Z,0.00
2019-02-02T07:05:22.888Z,0.00
2019-02-02T07:07:51.453Z,0.10
2019-02-02T07:10:22.576Z,0.10
2019-02-02T07:12:51.172Z,0.10
2019-02-02T07:15:22.555Z,0.10
2019-02-02T07:17:51.157Z,0.10
2019-02-02T07:20:19.899Z,0.10
2019-02-02T07:22:48.609Z,0.10
2019-02-02T07:25:17.295Z,0.10
2019-02-02T07:27:45.853Z,0.20
2019-02-02T07:30:27.672Z,0.10
2019-02-02T07:32:46.871Z,0.10
2019-02-02T07:35:15.500Z,0.20
2019-02-02T07:37:44.116Z,0.30
2019-02-02T07:40:14.925Z,0.30
2019-02-02T07:42:43.635Z,0.30
2019-02-02T07:45:15.263Z,0.30
2019-02-02T07:47:43.845Z,0.30
2019-02-02T07:50:16.784Z,0.30
2019-02-02T07:52:46.385Z,0.40
2019-02-02T07:55:17.044Z,0.40
2019-02-02T07:57:45.605Z,0.40
2019-02-02T08:00:19.969Z,0.40
2019-02-02T08:02:48.580Z,0.50
2019-02-02T08:05:17.182Z,0.50
2019-02-02T08:07:45.818Z,0.50
2019-02-02T08:10:14.707Z,0.50
2019-02-02T08:12:43.430Z,0.50
2019-02-02T08:15:17.887Z,0.60
2019-02-02T08:17:46.465Z,0.60
2019-02-02T08:20:15.304Z,0.70
2019-02-02T08:22:43.989Z,0.70
2019-02-02T08:25:14.798Z,0.70
2019-02-02T08:27:43.489Z,0.70
2019-02-02T08:30:18.233Z,0.80
2019-02-02T08:32:46.768Z,0.80
2019-02-02T08:35:15.620Z,0.90
2019-02-02T08:37:44.329Z,0.90
2019-02-02T08:40:18.052Z,0.90
2019-02-02T08:42:46.793Z,1.00
2019-02-02T08:45:16.416Z,1.00
2019-02-02T08:47:45.051Z,1.00
2019-02-02T08:50:18.789Z,1.00
2019-02-02T08:52:47.466Z,1.00
2019-02-02T08:55:16.050Z,1.00
2019-02-02T08:57:44.645Z,1.00
2019-02-02T09:00:18.912Z,1.10
2019-02-02T09:02:47.549Z,1.10
2019-02-02T09:05:18.475Z,1.20
2019-02-02T09:07:47.004Z,1.10
2019-02-02T09:10:17.408Z,1.10
2019-02-02T09:12:46.072Z,1.20
2019-02-02T09:15:16.595Z,1.20
2019-02-02T09:17:45.210Z,1.20
2019-02-02T09:20:14.824Z,1.20
2019-02-02T09:22:44.124Z,1.30
2019-02-02T09:25:18.079Z,1.30
2019-02-02T09:27:46.820Z,1.30
2019-02-02T09:30:29.537Z,1.30
2019-02-02T09:32:58.152Z,1.30
2019-02-02T09:35:26.785Z,1.40
2019-02-02T09:37:55.362Z,1.40
2019-02-02T09:40:25.730Z,1.40
2019-02-02T09:42:54.392Z,1.50
2019-02-02T09:45:24.209Z,1.50
2019-02-02T09:47:53.363Z,1.60
2019-02-02T09:50:24.646Z,1.60
2019-02-02T09:52:53.292Z,1.60
2019-02-02T09:55:23.432Z,1.60
2019-02-02T09:57:55.214Z,1.60
2019-02-02T10:00:28.772Z,1.60
2019-02-02T10:02:57.683Z,1.60
2019-02-02T10:05:26.552Z,1.70
2019-02-02T10:07:55.334Z,1.80
2019-02-02T10:10:25.825Z,1.80
2019-02-02T10:12:54.461Z,1.90
2019-02-02T10:15:23.141Z,1.90
2019-02-02T10:17:51.796Z,2.00
2019-02-02T10:20:22.910Z,2.00
2019-02-02T10:22:51.829Z,2.10
2019-02-02T10:25:22.538Z,2.10
2019-02-02T10:27:51.309Z,2.10
2019-02-02T10:30:23.033Z,2.10
2019-02-02T10:32:51.674Z,2.20
2019-02-02T10:35:20.298Z,2.30
2019-02-02T10:37:48.865Z,2.30
2019-02-02T10:40:17.437Z,2.40
2019-02-02T10:42:46.109Z,2.50
2019-02-02T10:45:16.925Z,2.50
2019-02-02T10:47:45.816Z,2.60
2019-02-02T10:50:20.081Z,2.60
2019-02-02T10:52:48.754Z,2.60
2019-02-02T10:55:17.795Z,2.60
2019-02-02T10:57:46.458Z,2.60
2019-02-02T11:00:18.137Z,2.60
2019-02-02T11:02:46.795Z,2.70
2019-02-02T11:05:15.701Z,2.70
2019-02-02T11:07:47.971Z,2.70
2019-02-02T11:10:22.380Z,2.80
2019-02-02T11:12:51.203Z,2.80
2019-02-02T11:15:21.739Z,2.80
2019-02-02T11:17:50.599Z,2.80
2019-02-02T11:20:27.564Z,2.70
2019-02-02T11:22:56.169Z,2.70
2019-02-02T11:25:24.947Z,2.70
2019-02-02T11:27:53.682Z,2.80
2019-02-02T11:30:23.273Z,2.70
2019-02-02T11:32:51.909Z,2.70
2019-02-02T11:35:21.429Z,2.70
2019-02-02T11:37:50.189Z,2.70
2019-02-02T11:40:29.754Z,2.70
2019-02-02T11:42:58.696Z,2.70
2019-02-02T11:45:27.432Z,2.70
2019-02-02T11:47:56.045Z,2.70
2019-02-02T11:50:24.937Z,2.80
2019-02-02T11:52:53.704Z,2.80
2019-02-02T11:55:24.816Z,2.90
2019-02-02T11:57:53.437Z,2.90
2019-02-02T12:00:30.627Z,2.90
2019-02-02T12:02:59.256Z,2.90
2019-02-02T12:05:27.933Z,2.90
2019-02-02T12:07:56.574Z,3.00
2019-02-02T12:10:32.894Z,3.00
2019-02-02T12:13:01.497Z,3.00
2019-02-02T12:15:30.225Z,3.00
2019-02-02T12:17:58.938Z,3.00
2019-02-02T12:20:27.574Z,3.00
2019-02-02T12:22:56.282Z,3.00
2019-02-02T12:25:24.952Z,3.10
2019-02-02T12:27:53.623Z,3.10
2019-02-02T12:30:24.908Z,3.10
2019-02-02T12:32:53.496Z,3.10
2019-02-02T12:35:27.353Z,3.10
2019-02-02T12:37:56.065Z,3.10
2019-02-02T12:40:26.309Z,3.10
2019-02-02T12:42:55.020Z,3.20
2019-02-02T12:45:26.373Z,3.20
2019-02-02T12:47:55.010Z,3.20
2019-02-02T12:50:23.652Z,3.20
2019-02-02T12:52:52.253Z,3.30
2019-02-02T12:55:20.961Z,3.30
2019-02-02T12:57:49.564Z,3.40
2019-02-02T13:00:21.365Z,3.40
2019-02-02T13:02:50.043Z,3.50
2019-02-02T13:05:20.752Z,3.40
2019-02-02T13:07:49.521Z,3.40
2019-02-02T13:10:24.260Z,3.40
2019-02-02T13:12:51.356Z,3.40
2019-02-02T13:15:20.077Z,3.60
2019-02-02T13:17:48.669Z,3.80
2019-02-02T13:20:18.705Z,4.00
2019-02-02T13:22:48.340Z,3.90
2019-02-02T13:25:21.367Z,3.80
2019-02-02T13:27:50.068Z,3.70
2019-02-02T13:30:21.720Z,3.70
2019-02-02T13:32:50.599Z,3.60
2019-02-02T13:35:20.039Z,3.60
2019-02-02T13:37:48.844Z,3.60
2019-02-02T13:40:19.983Z,3.50
2019-02-02T13:42:48.808Z,3.50
2019-02-02T13:45:19.316Z,3.50
2019-02-02T13:47:50.401Z,3.40
2019-02-02T13:50:19.734Z,3.40
2019-02-02T13:52:50.521Z,3.40
2019-02-02T13:55:19.205Z,3.40
2019-02-02T13:57:50.298Z,3.40
2019-02-02T14:00:21.585Z,3.40
2019-02-02T14:03:02.033Z,3.40
2019-02-02T14:05:22.290Z,3.40
2019-02-02T14:07:51.024Z,3.40
2019-02-02T14:10:22.065Z,3.40
2019-02-02T14:12:50.643Z,3.40
2019-02-02T14:15:19.824Z,3.40
2019-02-02T14:17:50.504Z,3.40
2019-02-02T14:20:19.585Z,3.40
2019-02-02T14:22:49.446Z,3.50
2019-02-02T14:25:18.360Z,3.50
2019-02-02T14:27:47.877Z,3.60
2019-02-02T14:30:25.907Z,3.60
2019-02-02T14:32:55.359Z,3.70
2019-02-02T14:35:26.418Z,3.70
2019-02-02T14:37:55.103Z,3.70
2019-02-02T14:40:23.742Z,3.70
2019-02-02T14:42:52.447Z,3.70
2019-02-02T14:45:26.758Z,3.70
2019-02-02T14:47:55.831Z,3.70
2019-02-02T14:50:24.776Z,3.70
2019-02-02T14:52:54.529Z,3.80
2019-02-02T14:55:27.789Z,3.80
2019-02-02T14:57:56.571Z,3.80
2019-02-02T15:00:27.122Z,3.80
2019-02-02T15:02:56.067Z,3.80
2019-02-02T15:05:24.899Z,3.90
2019-02-02T15:07:53.877Z,3.90
2019-02-02T15:10:23.537Z,3.80
2019-02-02T15:12:52.366Z,3.80
2019-02-02T15:15:21.193Z,3.90
2019-02-02T15:17:50.538Z,3.80
2019-02-02T15:20:28.111Z,3.70
2019-02-02T15:22:57.012Z,3.60
2019-02-02T15:25:26.484Z,3.60
2019-02-02T15:27:55.411Z,3.50
2019-02-02T15:30:26.756Z,3.50
2019-02-02T15:32:55.558Z,3.40
2019-02-02T15:35:24.576Z,3.40
2019-02-02T15:37:53.270Z,3.30
2019-02-02T15:40:21.956Z,3.20
2019-02-02T15:42:50.699Z,3.20
2019-02-02T15:45:32.353Z,3.20
2019-02-02T15:48:01.164Z,3.10
2019-02-02T15:50:30.227Z,3.10
2019-02-02T15:52:59.010Z,3.10
2019-02-02T15:55:27.709Z,3.10
2019-02-02T15:57:56.323Z,3.10
2019-02-02T16:00:29.819Z,3.10
2019-02-02T16:02:58.942Z,3.00
2019-02-02T16:05:28.362Z,3.00
2019-02-02T16:07:59.520Z,3.00
2019-02-02T16:10:30.411Z,2.90
2019-02-02T16:12:59.346Z,2.90
2019-02-02T16:15:27.974Z,2.90
2019-02-02T16:17:56.528Z,2.90
2019-02-02T16:20:30.408Z,2.90
2019-02-02T16:22:59.035Z,2.90
2019-02-02T16:25:27.843Z,2.80
2019-02-02T16:27:56.438Z,2.80
2019-02-02T16:33:21.693Z,2.80
2019-02-02T16:35:51.172Z,2.70
2019-02-02T16:38:20.045Z,2.70
2019-02-02T16:40:48.700Z,2.70
2019-02-02T16:43:17.255Z,2.70
2019-02-02T16:45:45.873Z,2.70
2019-02-02T16:48:14.576Z,2.70
2019-02-02T16:50:43.163Z,2.70
2019-02-02T16:53:11.830Z,2.70
2019-02-02T16:55:40.489Z,2.70
2019-02-02T16:58:09.365Z,2.70
2019-02-02T17:00:38.912Z,2.70
2019-02-02T17:03:07.611Z,2.60
2019-02-02T17:05:36.277Z,2.60
2019-02-02T17:08:05.341Z,2.60
2019-02-02T17:10:35.808Z,2.60
2019-02-02T17:13:05.349Z,2.50
2019-02-02T17:15:34.455Z,2.50
2019-02-02T17:18:03.214Z,2.50
2019-02-02T17:20:37.332Z,2.50
2019-02-02T17:23:05.982Z,2.50
2019-02-02T17:25:34.670Z,2.50
2019-02-02T17:28:03.248Z,2.50
2019-02-02T17:30:31.913Z,2.50
2019-02-02T17:33:03.053Z,2.50
2019-02-02T17:35:31.707Z,2.50
2019-02-02T17:38:00.343Z,2.50
2019-02-02T17:40:30.130Z,2.50
2019-02-02T17:42:58.954Z,2.50
2019-02-02T17:45:27.530Z,2.50
2019-02-02T17:47:56.285Z,2.50
2019-02-02T17:50:26.642Z,2.50
2019-02-02T17:52:55.303Z,2.50
2019-02-02T17:55:24.043Z,2.50
2019-02-02T17:57:53.679Z,2.50
2019-02-02T18:00:35.245Z,2.50
2019-02-02T18:03:04.583Z,2.50
2019-02-02T18:05:33.237Z,2.50
2019-02-02T18:08:01.840Z,2.50
2019-02-02T18:10:30.455Z,2.50
2019-02-02T18:12:59.292Z,3.00
2019-02-02T18:15:28.002Z,3.70
2019-02-02T18:17:56.925Z,4.20
2019-02-02T18:20:25.677Z,4.40
2019-02-02T18:22:54.647Z,4.40
2019-02-02T18:25:24.092Z,4.00
2019-02-02T18:27:52.704Z,3.70
2019-02-02T18:30:24.067Z,3.40
2019-02-02T18:32:52.942Z,3.20
2019-02-02T18:35:22.154Z,3.10
2019-02-02T18:37:50.746Z,3.00
2019-02-02T18:40:23.848Z,3.00
2019-02-02T18:42:53.095Z,2.90
2019-02-02T18:45:24.857Z,2.90
2019-02-02T18:47:55.106Z,2.80
2019-02-02T18:50:24.393Z,2.80
2019-02-02T18:52:58.396Z,2.80
2019-02-02T18:55:47.913Z,2.70
2019-02-02T18:58:17.009Z,2.70
2019-02-02T19:00:45.657Z,2.60
2019-02-02T19:03:14.281Z,2.60
2019-02-02T19:05:42.949Z,2.60
2019-02-02T19:08:11.704Z,2.60
2019-02-02T19:10:43.891Z,2.60
2019-02-02T19:13:12.461Z,2.60
2019-02-02T19:15:41.230Z,2.50
2019-02-02T19:18:09.989Z,2.50
2019-02-02T19:20:38.564Z,2.50
2019-02-02T19:23:07.225Z,2.50
2019-02-02T19:25:35.846Z,2.50
2019-02-02T19:28:06.225Z,2.50
2019-02-02T19:30:35.856Z,2.50
2019-02-02T19:33:04.957Z,2.50
2019-02-02T19:35:33.490Z,2.50
2019-02-02T19:38:02.071Z,2.50
2019-02-02T19:40:30.681Z,2.50
2019-02-02T19:42:59.544Z,2.50
2019-02-02T19:45:29.288Z,2.50
2019-02-02T19:47:58.080Z,2.40
2019-02-02T19:50:30.992Z,2.40
2019-02-02T19:52:59.972Z,2.50
2019-02-02T19:55:28.649Z,2.50
2019-02-02T19:57:57.188Z,2.50
2019-02-02T20:00:30.805Z,2.50
2019-02-02T20:02:59.621Z,2.50
2019-02-02T20:05:29.273Z,2.50
2019-02-02T20:07:57.966Z,2.50
2019-02-02T20:10:26.773Z,2.50
2019-02-02T20:12:55.613Z,2.50
2019-02-02T20:15:26.725Z,2.50
2019-02-02T20:17:55.554Z,2.50
2019-02-02T20:20:26.521Z,2.50
2019-02-02T20:22:56.273Z,2.40
2019-02-02T20:25:26.606Z,2.40
2019-02-02T20:27:56.084Z,2.40
2019-02-02T20:30:29.886Z,2.40
2019-02-02T20:32:59.003Z,2.40
2019-02-02T20:35:39.721Z,2.40
2019-02-02T20:37:58.466Z,2.50
2019-02-02T20:40:27.672Z,2.40
2019-02-02T20:42:56.526Z,2.50
2019-02-02T20:45:35.142Z,2.40
2019-02-02T20:48:03.838Z,2.50
2019-02-02T20:50:32.469Z,2.50
2019-02-02T20:53:01.199Z,2.40
2019-02-02T20:55:38.255Z,2.50
2019-02-02T20:58:07.375Z,2.60
2019-02-02T21:00:36.337Z,2.60
2019-02-02T21:03:05.141Z,2.50
2019-02-02T21:05:33.954Z,2.50
2019-02-02T21:08:02.993Z,2.50
2019-02-02T21:10:31.639Z,2.50
2019-02-02T21:13:00.325Z,2.40
2019-02-02T21:15:28.899Z,2.40
2019-02-02T21:17:57.533Z,2.40
2019-02-02T21:20:30.492Z,2.40
2019-02-02T21:22:59.126Z,2.30
2019-02-02T21:25:28.622Z,2.30
2019-02-02T21:27:57.329Z,2.30
2019-02-02T21:30:27.933Z,2.30
2019-02-02T21:32:56.639Z,2.40
2019-02-02T21:35:25.652Z,2.30
2019-02-02T21:37:54.362Z,2.30
2019-02-02T21:40:25.296Z,2.30
2019-02-02T21:42:53.881Z,2.30
2019-02-02T21:45:22.463Z,2.30
2019-02-02T21:47:51.380Z,2.30
2019-02-02T21:50:24.280Z,2.30
2019-02-02T21:52:53.038Z,2.30
2019-02-02T21:55:23.554Z,2.30
2019-02-02T21:57:52.192Z,2.30
2019-02-02T22:00:26.116Z,2.20
2019-02-02T22:02:54.846Z,2.20
2019-02-02T22:05:23.594Z,2.20
2019-02-02T22:07:52.178Z,2.20
2019-02-02T22:10:20.852Z,2.20
2019-02-02T22:12:52.408Z,2.10
2019-02-02T22:15:24.658Z,2.10
2019-02-02T22:17:53.360Z,2.10
2019-02-02T22:20:22.079Z,2.10
2019-02-02T22:22:50.808Z,2.20
2019-02-02T22:25:30.533Z,2.10
2019-02-02T22:27:59.298Z,2.10
2019-02-02T22:30:33.842Z,2.10
2019-02-02T22:33:02.488Z,2.20
2019-02-02T22:35:31.172Z,2.20
2019-02-02T22:38:00.220Z,2.20
2019-02-02T22:40:28.967Z,2.20
2019-02-02T22:42:57.737Z,2.20
2019-02-02T22:45:26.385Z,2.20
2019-02-02T22:47:54.957Z,2.20
2019-02-02T22:50:25.430Z,2.20
2019-02-02T22:52:54.300Z,2.30
2019-02-02T22:55:23.905Z,2.20
2019-02-02T22:57:52.660Z,2.20
2019-02-02T23:00:43.827Z,2.20
2019-02-02T23:03:18.264Z,2.20
2019-02-02T23:05:49.913Z,2.20
2019-02-02T23:08:24.170Z,2.10
2019-02-02T23:11:10.818Z,2.10
2019-02-02T23:13:48.328Z,2.00
2019-02-02T23:16:27.508Z,1.90
2019-02-02T23:18:56.421Z,1.90
2019-02-02T23:21:25.248Z,1.80
2019-02-02T23:23:53.897Z,1.80
2019-02-02T23:26:22.658Z,1.70
2019-02-02T23:28:51.217Z,1.70
2019-02-02T23:31:19.929Z,1.70
2019-02-02T23:33:48.529Z,1.60
2019-02-02T23:36:17.356Z,1.60
2019-02-02T23:38:45.917Z,1.60
2019-02-02T23:41:14.597Z,1.50
2019-02-02T23:43:43.214Z,1.50
2019-02-02T23:46:11.984Z,1.50
2019-02-02T23:48:40.553Z,1.40
2019-02-02T23:51:09.353Z,1.40
2019-02-02T23:53:38.120Z,1.50
2019-02-02T23:56:06.812Z,1.50
2019-02-02T23:58:35.384Z,1.60
